createdAt,value
2018-10-12T00:00:48.153Z,1004.31
2018-10-12T00:01:48.144Z,1004.35
2018-10-12T00:02:48.134Z,1004.35
2018-10-12T00:03:48.212Z,1004.39
2018-10-12T00:04:48.108Z,1004.41
2018-10-12T00:05:48.380Z,1004.48
2018-10-12T00:06:48.091Z,1004.50
2018-10-12T00:07:48.076Z,1004.54
2018-10-12T00:08:48.066Z,1004.56
2018-10-12T00:09:48.126Z,1004.57
2018-10-12T00:10:48.046Z,1004.54
2018-10-12T00:11:48.034Z,1004.60
2018-10-12T00:12:48.026Z,1004.57
2018-10-12T00:13:48.014Z,1004.62
2018-10-12T00:14:48.003Z,1004.58
2018-10-12T00:15:48.067Z,1004.57
2018-10-12T00:16:47.981Z,1004.59
2018-10-12T00:17:48.253Z,1004.52
2018-10-12T00:18:47.960Z,1004.56
2018-10-12T00:19:47.953Z,1004.54
2018-10-12T00:20:47.938Z,1004.54
2018-10-12T00:21:48.030Z,1004.55
2018-10-12T00:22:47.917Z,1004.56
2018-10-12T00:23:47.907Z,1004.52
2018-10-12T00:24:48.170Z,1004.50
2018-10-12T00:25:47.885Z,1004.51
2018-10-12T00:26:47.875Z,1004.52
2018-10-12T00:27:47.938Z,1004.53
2018-10-12T00:28:47.855Z,1004.52
2018-10-12T00:29:47.847Z,1004.50
2018-10-12T00:30:47.834Z,1004.57
2018-10-12T00:31:47.822Z,1004.60
2018-10-12T00:32:47.841Z,1004.63
2018-10-12T00:33:48.552Z,1004.68
2018-10-12T00:34:47.792Z,1004.74
2018-10-12T00:35:47.779Z,1004.78
2018-10-12T00:36:47.772Z,1004.76
2018-10-12T00:37:48.060Z,1004.77
2018-10-12T00:38:47.749Z,1004.78
2018-10-12T00:39:47.839Z,1004.74
2018-10-12T00:40:47.727Z,1004.75
2018-10-12T00:41:47.715Z,1004.77
2018-10-12T00:42:47.705Z,1004.72
2018-10-12T00:43:47.694Z,1004.66
2018-10-12T00:44:47.980Z,1004.66
2018-10-12T00:45:47.748Z,1004.67
2018-10-12T00:46:47.662Z,1004.61
2018-10-12T00:47:47.652Z,1004.61
2018-10-12T00:48:47.645Z,1004.65
2018-10-12T00:49:47.708Z,1004.63
2018-10-12T00:50:47.629Z,1004.61
2018-10-12T00:51:47.684Z,1004.70
2018-10-12T00:52:47.599Z,1004.69
2018-10-12T00:53:47.589Z,1004.72
2018-10-12T00:54:47.579Z,1004.73
2018-10-12T00:55:47.569Z,1004.72
2018-10-12T00:56:47.557Z,1004.68
2018-10-12T00:57:47.925Z,1004.74
2018-10-12T00:58:47.536Z,1004.76
2018-10-12T00:59:47.525Z,1004.73
2018-10-12T01:00:47.516Z,1004.73
2018-10-12T01:01:47.504Z,1004.74
2018-10-12T01:02:47.493Z,1004.77
2018-10-12T01:03:47.555Z,1004.79
2018-10-12T01:04:47.754Z,1004.77
2018-10-12T01:05:47.465Z,1004.77
2018-10-12T01:06:47.545Z,1004.75
2018-10-12T01:07:47.439Z,1004.76
2018-10-12T01:08:47.430Z,1004.76
2018-10-12T01:09:47.495Z,1004.84
2018-10-12T01:10:47.411Z,1004.80
2018-10-12T01:11:47.689Z,1004.81
2018-10-12T01:12:47.388Z,1004.83
2018-10-12T01:13:47.376Z,1004.84
2018-10-12T01:14:47.368Z,1004.87
2018-10-12T01:15:47.490Z,1004.84
2018-10-12T01:16:47.344Z,1004.84
2018-10-12T01:17:47.334Z,1004.87
2018-10-12T01:18:47.604Z,1004.81
2018-10-12T01:19:47.312Z,1004.84
2018-10-12T01:20:47.302Z,1004.90
2018-10-12T01:21:47.366Z,1004.82
2018-10-12T01:22:47.283Z,1004.84
2018-10-12T01:23:47.270Z,1004.84
2018-10-12T01:24:47.259Z,1004.86
2018-10-12T01:25:47.530Z,1004.84
2018-10-12T01:26:47.238Z,1004.87
2018-10-12T01:27:47.302Z,1004.84
2018-10-12T01:28:47.219Z,1004.85
2018-10-12T01:29:47.205Z,1004.87
2018-10-12T01:30:47.194Z,1004.90
2018-10-12T01:31:47.185Z,1004.90
2018-10-12T01:32:47.176Z,1004.86
2018-10-12T01:33:47.282Z,1004.91
2018-10-12T01:34:47.152Z,1004.88
2018-10-12T01:35:47.140Z,1004.89
2018-10-12T01:36:47.131Z,1004.93
2018-10-12T01:37:47.122Z,1004.89
2018-10-12T01:38:47.394Z,1004.87
2018-10-12T01:39:48.090Z,1004.86
2018-10-12T01:40:47.088Z,1004.89
2018-10-12T01:41:47.077Z,1004.88
2018-10-12T01:42:47.066Z,1004.90
2018-10-12T01:43:47.056Z,1004.92
2018-10-12T01:44:47.048Z,1004.88
2018-10-12T01:45:47.109Z,1004.91
2018-10-12T01:46:47.023Z,1004.90
2018-10-12T01:47:47.013Z,1004.88
2018-10-12T01:48:47.002Z,1004.87
2018-10-12T01:49:46.991Z,1004.87
2018-10-12T01:50:47.260Z,1004.85
2018-10-12T01:51:47.057Z,1004.87
2018-10-12T01:52:46.958Z,1004.87
2018-10-12T01:53:46.953Z,1004.87
2018-10-12T01:54:46.937Z,1004.91
2018-10-12T01:55:47.589Z,1004.88
2018-10-12T01:56:47.869Z,1004.89
2018-10-12T01:57:46.987Z,1004.94
2018-10-12T01:58:46.895Z,1004.95
2018-10-12T01:59:46.884Z,1004.94
2018-10-12T02:02:26.296Z,1005.00
2018-10-12T02:03:26.198Z,1004.94
2018-10-12T02:04:26.189Z,1004.99
2018-10-12T02:05:26.184Z,1004.97
2018-10-12T02:06:26.168Z,1004.96
2018-10-12T02:07:26.157Z,1005.01
2018-10-12T02:08:26.477Z,1004.97
2018-10-12T02:09:26.136Z,1004.96
2018-10-12T02:10:26.130Z,1004.94
2018-10-12T02:11:27.045Z,1004.91
2018-10-12T02:12:26.110Z,1004.97
2018-10-12T02:13:26.100Z,1004.86
2018-10-12T02:14:26.130Z,1004.93
2018-10-12T02:15:26.377Z,1004.89
2018-10-12T02:16:26.071Z,1004.90
2018-10-12T02:17:26.059Z,1004.91
2018-10-12T02:18:26.047Z,1004.90
2018-10-12T02:19:26.037Z,1004.95
2018-10-12T02:20:26.099Z,1004.99
2018-10-12T02:21:26.021Z,1004.93
2018-10-12T02:22:26.286Z,1004.92
2018-10-12T02:23:25.994Z,1004.92
2018-10-12T02:24:25.983Z,1004.89
2018-10-12T02:25:25.976Z,1004.89
2018-10-12T02:26:26.003Z,1004.85
2018-10-12T02:27:25.955Z,1004.83
2018-10-12T02:28:25.945Z,1004.84
2018-10-12T02:29:26.207Z,1004.81
2018-10-12T02:30:25.921Z,1004.88
2018-10-12T02:31:25.914Z,1004.81
2018-10-12T02:32:26.773Z,1004.86
2018-10-12T02:33:25.890Z,1004.88
2018-10-12T02:34:25.879Z,1004.91
2018-10-12T02:35:25.865Z,1004.92
2018-10-12T02:36:26.138Z,1004.91
2018-10-12T02:37:25.846Z,1004.94
2018-10-12T02:38:25.947Z,1004.93
2018-10-12T02:39:25.827Z,1004.94
2018-10-12T02:40:25.813Z,1004.95
2018-10-12T02:41:25.809Z,1004.93
2018-10-12T02:42:25.793Z,1004.96
2018-10-12T02:43:26.096Z,1004.98
2018-10-12T02:44:25.898Z,1005.05
2018-10-12T02:45:25.764Z,1005.06
2018-10-12T02:46:25.752Z,1005.09
2018-10-12T02:47:25.746Z,1005.07
2018-10-12T02:48:25.729Z,1005.04
2018-10-12T02:49:25.717Z,1005.02
2018-10-12T02:50:26.078Z,1005.03
2018-10-12T02:51:25.697Z,1005.04
2018-10-12T02:52:25.684Z,1004.97
2018-10-12T02:53:25.673Z,1005.03
2018-10-12T02:54:25.664Z,1005.02
2018-10-12T02:55:25.652Z,1005.04
2018-10-12T02:56:25.740Z,1005.06
2018-10-12T02:57:25.912Z,1005.07
2018-10-12T02:58:25.620Z,1005.12
2018-10-12T02:59:25.608Z,1005.13
2018-10-12T03:00:25.599Z,1005.15
2018-10-12T03:01:25.589Z,1005.18
2018-10-12T03:02:25.650Z,1005.17
2018-10-12T03:03:25.566Z,1005.21
2018-10-12T03:04:25.841Z,1005.18
2018-10-12T03:05:25.544Z,1005.27
2018-10-12T03:06:25.535Z,1005.25
2018-10-12T03:07:25.523Z,1005.27
2018-10-12T03:08:25.585Z,1005.23
2018-10-12T03:09:25.503Z,1005.21
2018-10-12T03:10:25.491Z,1005.26
2018-10-12T03:11:25.761Z,1005.30
2018-10-12T03:12:25.473Z,1005.27
2018-10-12T03:13:25.459Z,1005.33
2018-10-12T03:14:25.791Z,1005.27
2018-10-12T03:15:25.437Z,1005.37
2018-10-12T03:16:25.428Z,1005.40
2018-10-12T03:17:25.415Z,1005.39
2018-10-12T03:18:25.712Z,1005.36
2018-10-12T03:19:25.397Z,1005.42
2018-10-12T03:20:25.456Z,1005.45
2018-10-12T03:21:25.377Z,1005.42
2018-10-12T03:22:25.363Z,1005.42
2018-10-12T03:23:25.352Z,1005.36
2018-10-12T03:24:25.341Z,1005.40
2018-10-12T03:25:25.610Z,1005.40
2018-10-12T03:26:25.393Z,1005.42
2018-10-12T03:27:25.310Z,1005.46
2018-10-12T03:28:25.299Z,1005.48
2018-10-12T03:29:25.289Z,1005.49
2018-10-12T03:30:25.276Z,1005.45
2018-10-12T03:31:25.265Z,1005.50
2018-10-12T03:32:25.419Z,1005.49
2018-10-12T03:33:25.247Z,1005.51
2018-10-12T03:34:25.234Z,1005.48
2018-10-12T03:35:25.228Z,1005.48
2018-10-12T03:36:25.217Z,1005.50
2018-10-12T03:37:25.271Z,1005.51
2018-10-12T03:38:25.541Z,1005.53
2018-10-12T03:39:25.180Z,1005.51
2018-10-12T03:40:25.169Z,1005.49
2018-10-12T03:41:25.157Z,1005.52
2018-10-12T03:42:25.146Z,1005.49
2018-10-12T03:43:25.140Z,1005.51
2018-10-12T03:44:25.222Z,1005.49
2018-10-12T03:45:25.398Z,1005.52
2018-10-12T03:46:25.103Z,1005.52
2018-10-12T03:47:25.095Z,1005.54
2018-10-12T03:48:25.083Z,1005.58
2018-10-12T03:49:25.071Z,1005.59
2018-10-12T03:50:25.145Z,1005.60
2018-10-12T03:51:25.050Z,1005.54
2018-10-12T03:52:25.408Z,1005.52
2018-10-12T03:53:25.029Z,1005.53
2018-10-12T03:54:25.018Z,1005.58
2018-10-12T03:55:25.006Z,1005.68
2018-10-12T03:56:25.071Z,1005.68
2018-10-12T03:57:24.984Z,1005.64
2018-10-12T03:58:24.976Z,1005.66
2018-10-12T03:59:25.406Z,1005.69
2018-10-12T04:00:24.953Z,1005.71
2018-10-12T04:01:24.941Z,1005.68
2018-10-12T04:02:25.006Z,1005.69
2018-10-12T04:03:24.920Z,1005.69
2018-10-12T04:04:24.914Z,1005.67
2018-10-12T04:05:24.898Z,1005.68
2018-10-12T04:06:25.218Z,1005.74
2018-10-12T04:07:24.879Z,1005.74
2018-10-12T04:08:24.964Z,1005.70
2018-10-12T04:09:24.857Z,1005.72
2018-10-12T04:10:24.848Z,1005.71
2018-10-12T04:11:24.833Z,1005.71
2018-10-12T04:12:24.883Z,1005.74
2018-10-12T04:13:25.247Z,1005.76
2018-10-12T04:14:25.570Z,1005.76
2018-10-12T04:15:24.791Z,1005.76
2018-10-12T04:16:24.780Z,1005.75
2018-10-12T04:17:24.768Z,1005.78
2018-10-12T04:18:24.758Z,1005.73
2018-10-12T04:19:24.754Z,1005.78
2018-10-12T04:20:25.307Z,1005.79
2018-10-12T04:21:24.737Z,1005.82
2018-10-12T04:22:24.723Z,1005.87
2018-10-12T04:23:24.720Z,1005.83
2018-10-12T04:24:24.693Z,1005.80
2018-10-12T04:25:24.683Z,1005.78
2018-10-12T04:26:24.765Z,1005.74
2018-10-12T04:27:25.082Z,1005.71
2018-10-12T04:28:24.665Z,1005.72
2018-10-12T04:29:24.717Z,1005.70
2018-10-12T04:30:24.655Z,1005.69
2018-10-12T04:31:24.667Z,1005.79
2018-10-12T04:32:24.762Z,1005.85
2018-10-12T04:33:24.598Z,1005.97
2018-10-12T04:34:24.902Z,1006.07
2018-10-12T04:35:24.575Z,1006.12
2018-10-12T04:36:24.564Z,1006.09
2018-10-12T04:37:24.552Z,1006.12
2018-10-12T04:38:24.617Z,1006.15
2018-10-12T04:39:24.530Z,1006.12
2018-10-12T04:40:24.521Z,1006.15
2018-10-12T04:41:24.932Z,1006.14
2018-10-12T04:42:24.498Z,1006.17
2018-10-12T04:43:24.487Z,1006.19
2018-10-12T04:44:24.619Z,1006.25
2018-10-12T04:45:24.466Z,1006.20
2018-10-12T04:46:24.455Z,1006.23
2018-10-12T04:47:24.522Z,1006.26
2018-10-12T04:48:24.747Z,1006.29
2018-10-12T04:49:24.424Z,1006.31
2018-10-12T04:50:24.481Z,1006.28
2018-10-12T04:51:24.401Z,1006.29
2018-10-12T04:52:24.389Z,1006.33
2018-10-12T04:53:24.394Z,1006.36
2018-10-12T04:54:24.368Z,1006.39
2018-10-12T04:55:24.782Z,1006.40
2018-10-12T04:56:24.422Z,1006.45
2018-10-12T04:57:24.337Z,1006.49
2018-10-12T04:58:24.324Z,1006.52
2018-10-12T04:59:24.332Z,1006.54
2018-10-12T05:00:24.302Z,1006.53
2018-10-12T05:01:24.291Z,1006.52
2018-10-12T05:02:24.365Z,1006.52
2018-10-12T05:03:24.269Z,1006.52
2018-10-12T05:04:24.260Z,1006.52
2018-10-12T05:05:24.247Z,1006.49
2018-10-12T05:06:24.235Z,1006.44
2018-10-12T05:07:24.226Z,1006.38
2018-10-12T05:08:24.616Z,1006.47
2018-10-12T05:09:24.206Z,1006.47
2018-10-12T05:10:24.193Z,1006.53
2018-10-12T05:11:24.182Z,1006.54
2018-10-12T05:12:24.172Z,1006.61
2018-10-12T05:13:24.244Z,1006.63
2018-10-12T05:14:24.432Z,1006.65
2018-10-12T05:15:24.198Z,1006.63
2018-10-12T05:16:24.210Z,1006.65
2018-10-12T05:17:25.041Z,1006.67
2018-10-12T05:18:25.047Z,1006.60
2018-10-12T05:19:24.101Z,1006.69
2018-10-12T05:20:24.807Z,1006.72
2018-10-12T05:21:24.090Z,1006.72
2018-10-12T05:22:24.073Z,1006.77
2018-10-12T05:23:24.079Z,1006.80
2018-10-12T05:24:24.061Z,1006.78
2018-10-12T05:25:24.042Z,1006.77
2018-10-12T05:26:24.284Z,1006.79
2018-10-12T05:27:24.356Z,1006.81
2018-10-12T05:28:24.061Z,1006.85
2018-10-12T05:29:24.047Z,1006.84
2018-10-12T05:30:23.979Z,1006.85
2018-10-12T05:31:23.966Z,1006.98
2018-10-12T05:32:24.030Z,1006.94
2018-10-12T05:33:23.944Z,1006.93
2018-10-12T05:34:24.371Z,1006.87
2018-10-12T05:35:23.923Z,1006.92
2018-10-12T05:36:23.911Z,1007.02
2018-10-12T05:37:23.977Z,1006.98
2018-10-12T05:38:24.173Z,1006.98
2018-10-12T05:39:23.879Z,1007.00
2018-10-12T05:40:23.868Z,1007.02
2018-10-12T05:41:24.193Z,1007.02
2018-10-12T05:42:23.847Z,1007.04
2018-10-12T05:43:23.914Z,1007.06
2018-10-12T05:44:24.561Z,1007.09
2018-10-12T05:45:23.830Z,1007.02
2018-10-12T05:46:23.860Z,1007.13
2018-10-12T05:47:23.795Z,1007.10
2018-10-12T05:48:24.194Z,1007.16
2018-10-12T05:49:23.776Z,1007.12
2018-10-12T05:50:24.069Z,1007.19
2018-10-12T05:51:23.815Z,1007.18
2018-10-12T05:52:23.913Z,1007.18
2018-10-12T05:53:23.792Z,1007.21
2018-10-12T05:54:23.841Z,1007.23
2018-10-12T05:55:24.316Z,1007.16
2018-10-12T05:56:23.843Z,1007.20
2018-10-12T05:57:23.703Z,1007.20
2018-10-12T05:58:23.680Z,1007.22
2018-10-12T05:59:23.741Z,1007.23
2018-10-12T06:00:23.667Z,1007.26
2018-10-12T06:01:23.709Z,1007.21
2018-10-12T06:02:23.766Z,1007.22
2018-10-12T06:03:23.625Z,1007.29
2018-10-12T06:04:23.612Z,1007.30
2018-10-12T06:05:23.599Z,1007.36
2018-10-12T06:06:23.589Z,1007.37
2018-10-12T06:07:23.578Z,1007.45
2018-10-12T06:08:23.636Z,1007.57
2018-10-12T06:09:23.583Z,1007.55
2018-10-12T06:10:23.551Z,1007.53
2018-10-12T06:11:23.600Z,1007.55
2018-10-12T06:12:23.523Z,1007.55
2018-10-12T06:13:23.512Z,1007.61
2018-10-12T06:14:24.532Z,1007.60
2018-10-12T06:15:23.553Z,1007.60
2018-10-12T06:16:23.479Z,1007.64
2018-10-12T06:17:23.470Z,1007.68
2018-10-12T06:18:23.458Z,1007.68
2018-10-12T06:19:23.446Z,1007.64
2018-10-12T06:20:23.507Z,1007.66
2018-10-12T06:21:23.970Z,1007.64
2018-10-12T06:22:23.411Z,1007.62
2018-10-12T06:23:23.403Z,1007.62
2018-10-12T06:24:23.393Z,1007.62
2018-10-12T06:25:23.394Z,1007.62
2018-10-12T06:26:23.455Z,1007.67
2018-10-12T06:27:23.361Z,1007.71
2018-10-12T06:28:23.872Z,1007.71
2018-10-12T06:29:23.342Z,1007.72
2018-10-12T06:30:23.326Z,1007.75
2018-10-12T06:31:23.317Z,1007.76
2018-10-12T06:32:23.448Z,1007.80
2018-10-12T06:33:23.294Z,1007.79
2018-10-12T06:34:23.288Z,1007.80
2018-10-12T06:35:24.485Z,1007.80
2018-10-12T06:36:23.265Z,1007.81
2018-10-12T06:37:23.252Z,1007.82
2018-10-12T06:38:23.316Z,1007.85
2018-10-12T06:39:23.229Z,1007.87
2018-10-12T06:40:23.217Z,1007.91
2018-10-12T06:41:23.286Z,1007.91
2018-10-12T06:42:23.491Z,1007.89
2018-10-12T06:43:23.185Z,1007.88
2018-10-12T06:44:23.378Z,1007.89
2018-10-12T06:45:23.162Z,1007.91
2018-10-12T06:46:23.183Z,1007.96
2018-10-12T06:47:23.142Z,1008.02
2018-10-12T06:48:24.028Z,1008.03
2018-10-12T06:49:25.348Z,1008.06
2018-10-12T06:50:23.193Z,1008.09
2018-10-12T06:51:24.031Z,1008.11
2018-10-12T06:52:24.030Z,1008.11
2018-10-12T06:53:28.027Z,1008.12
2018-10-12T06:54:24.029Z,1008.13
2018-10-12T06:55:25.026Z,1008.14
2018-10-12T06:56:23.705Z,1008.16
2018-10-12T06:57:23.033Z,1008.12
2018-10-12T06:58:23.021Z,1008.18
2018-10-12T06:59:23.015Z,1008.18
2018-10-12T07:00:23.538Z,1008.18
2018-10-12T07:01:23.527Z,1008.19
2018-10-12T07:02:23.507Z,1008.22
2018-10-12T07:03:23.528Z,1008.28
2018-10-12T07:04:23.566Z,1008.28
2018-10-12T07:05:22.993Z,1008.30
2018-10-12T07:06:22.999Z,1008.31
2018-10-12T07:07:23.676Z,1008.37
2018-10-12T07:08:23.012Z,1008.37
2018-10-12T07:09:22.902Z,1008.40
2018-10-12T07:10:23.489Z,1008.45
2018-10-12T07:11:22.880Z,1008.43
2018-10-12T07:12:22.947Z,1008.41
2018-10-12T07:13:23.488Z,1008.44
2018-10-12T07:14:23.352Z,1008.37
2018-10-12T07:15:22.839Z,1008.35
2018-10-12T07:16:23.455Z,1008.37
2018-10-12T07:17:22.893Z,1008.40
2018-10-12T07:18:23.076Z,1008.44
2018-10-12T07:19:23.344Z,1008.40
2018-10-12T07:20:25.331Z,1008.41
2018-10-12T07:21:22.991Z,1008.46
2018-10-12T07:22:22.817Z,1008.52
2018-10-12T07:23:22.777Z,1008.51
2018-10-12T07:24:22.743Z,1008.51
2018-10-12T07:25:22.791Z,1008.51
2018-10-12T07:26:23.278Z,1008.56
2018-10-12T07:27:22.711Z,1008.57
2018-10-12T07:28:22.715Z,1008.63
2018-10-12T07:29:22.732Z,1008.64
2018-10-12T07:30:22.683Z,1008.70
2018-10-12T07:31:22.729Z,1008.70
2018-10-12T07:32:23.258Z,1008.77
2018-10-12T07:33:22.665Z,1008.77
2018-10-12T07:34:22.637Z,1008.82
2018-10-12T07:35:22.627Z,1008.88
2018-10-12T07:36:22.620Z,1008.89
2018-10-12T07:37:22.934Z,1008.86
2018-10-12T07:38:22.748Z,1008.90
2018-10-12T07:39:22.583Z,1008.90
2018-10-12T07:40:22.574Z,1008.93
2018-10-12T07:41:22.598Z,1008.93
2018-10-12T07:42:22.640Z,1008.92
2018-10-12T07:43:22.544Z,1008.92
2018-10-12T07:44:22.777Z,1008.94
2018-10-12T07:45:22.524Z,1008.98
2018-10-12T07:46:22.619Z,1008.96
2018-10-12T07:47:22.680Z,1008.97
2018-10-12T07:48:22.514Z,1009.04
2018-10-12T07:49:22.828Z,1009.00
2018-10-12T07:50:22.820Z,1009.05
2018-10-12T07:51:22.539Z,1009.08
2018-10-12T07:52:22.557Z,1009.04
2018-10-12T07:53:22.623Z,1009.00
2018-10-12T07:54:22.585Z,1008.98
2018-10-12T07:55:22.519Z,1009.06
2018-10-12T07:56:22.582Z,1009.08
2018-10-12T07:57:22.838Z,1009.11
2018-10-12T07:58:22.457Z,1009.17
2018-10-12T07:59:22.459Z,1009.19
2018-10-12T08:00:22.447Z,1009.18
2018-10-12T08:01:22.376Z,1009.23
2018-10-12T08:02:22.560Z,1009.25
2018-10-12T08:03:22.387Z,1009.19
2018-10-12T08:04:22.806Z,1009.25
2018-10-12T08:05:22.311Z,1009.22
2018-10-12T08:06:22.359Z,1009.22
2018-10-12T08:07:22.290Z,1009.20
2018-10-12T08:08:22.511Z,1009.22
2018-10-12T08:09:22.270Z,1009.20
2018-10-12T08:10:22.265Z,1009.23
2018-10-12T08:11:22.248Z,1009.20
2018-10-12T08:12:22.238Z,1009.21
2018-10-12T08:13:22.237Z,1009.24
2018-10-12T08:14:24.279Z,1009.22
2018-10-12T08:15:22.281Z,1009.24
2018-10-12T08:16:22.681Z,1009.24
2018-10-12T08:17:22.192Z,1009.17
2018-10-12T08:18:22.253Z,1009.19
2018-10-12T08:19:23.159Z,1009.20
2018-10-12T08:20:22.437Z,1009.25
2018-10-12T08:21:23.168Z,1009.21
2018-10-12T08:22:23.223Z,1009.22
2018-10-12T08:23:25.506Z,1009.26
2018-10-12T08:24:23.131Z,1009.26
2018-10-12T08:25:23.037Z,1009.24
2018-10-12T08:26:23.029Z,1009.25
2018-10-12T08:27:22.080Z,1009.24
2018-10-12T08:28:23.291Z,1009.25
2018-10-12T08:29:24.129Z,1009.27
2018-10-12T08:30:24.131Z,1009.26
2018-10-12T08:31:22.098Z,1009.23
2018-10-12T08:32:25.060Z,1009.23
2018-10-12T08:33:22.534Z,1009.28
2018-10-12T08:34:22.137Z,1009.29
2018-10-12T08:35:22.583Z,1009.32
2018-10-12T08:36:22.785Z,1009.32
2018-10-12T08:37:22.065Z,1009.33
2018-10-12T08:38:23.122Z,1009.29
2018-10-12T08:39:22.649Z,1009.34
2018-10-12T08:40:22.643Z,1009.35
2018-10-12T08:41:22.261Z,1009.36
2018-10-12T08:42:23.102Z,1009.29
2018-10-12T08:43:22.532Z,1009.31
2018-10-12T08:44:22.176Z,1009.28
2018-10-12T08:45:21.948Z,1009.30
2018-10-12T08:46:21.892Z,1009.31
2018-10-12T08:47:21.904Z,1009.29
2018-10-12T08:48:21.911Z,1009.35
2018-10-12T08:49:22.280Z,1009.36
2018-10-12T08:50:23.493Z,1009.35
2018-10-12T08:51:21.864Z,1009.42
2018-10-12T08:52:21.817Z,1009.43
2018-10-12T08:53:21.809Z,1009.42
2018-10-12T08:54:21.801Z,1009.40
2018-10-12T08:55:21.801Z,1009.42
2018-10-12T08:56:22.237Z,1009.45
2018-10-12T08:57:21.800Z,1009.45
2018-10-12T08:58:21.754Z,1009.43
2018-10-12T08:59:21.859Z,1009.40
2018-10-12T09:00:21.929Z,1009.41
2018-10-12T09:01:22.174Z,1009.46
2018-10-12T09:02:22.906Z,1009.47
2018-10-12T09:03:21.908Z,1009.40
2018-10-12T09:04:21.795Z,1009.41
2018-10-12T09:05:21.683Z,1009.43
2018-10-12T09:06:21.673Z,1009.41
2018-10-12T09:07:21.661Z,1009.45
2018-10-12T09:08:23.133Z,1009.46
2018-10-12T09:09:21.734Z,1009.47
2018-10-12T09:10:21.629Z,1009.49
2018-10-12T09:11:21.761Z,1009.48
2018-10-12T09:12:21.757Z,1009.50
2018-10-12T09:13:21.710Z,1009.49
2018-10-12T09:14:22.651Z,1009.50
2018-10-12T09:15:21.971Z,1009.48
2018-10-12T09:16:21.696Z,1009.41
2018-10-12T09:17:21.559Z,1009.42
2018-10-12T09:18:21.631Z,1009.37
2018-10-12T09:19:21.577Z,1009.42
2018-10-12T09:20:22.073Z,1009.37
2018-10-12T09:21:21.732Z,1009.38
2018-10-12T09:22:21.801Z,1009.38
2018-10-12T09:23:21.563Z,1009.34
2018-10-12T09:24:21.552Z,1009.34
2018-10-12T09:25:21.502Z,1009.36
2018-10-12T09:26:21.899Z,1009.43
2018-10-12T09:27:21.939Z,1009.41
2018-10-12T09:28:21.546Z,1009.37
2018-10-12T09:29:21.430Z,1009.46
2018-10-12T09:30:21.523Z,1009.46
2018-10-12T09:31:22.675Z,1009.51
2018-10-12T09:32:21.544Z,1009.56
2018-10-12T09:33:21.390Z,1009.54
2018-10-12T09:34:21.820Z,1009.52
2018-10-12T09:35:21.385Z,1009.55
2018-10-12T09:36:21.373Z,1009.58
2018-10-12T09:37:21.410Z,1009.55
2018-10-12T09:38:21.414Z,1009.57
2018-10-12T09:39:22.127Z,1009.55
2018-10-12T09:40:21.317Z,1009.55
2018-10-12T09:41:21.312Z,1009.52
2018-10-12T09:42:21.336Z,1009.48
2018-10-12T09:43:21.394Z,1009.49
2018-10-12T09:44:21.345Z,1009.53
2018-10-12T09:45:21.275Z,1009.52
2018-10-12T09:46:22.680Z,1009.53
2018-10-12T09:47:21.244Z,1009.51
2018-10-12T09:48:21.271Z,1009.51
2018-10-12T09:49:21.227Z,1009.55
2018-10-12T09:50:21.373Z,1009.55
2018-10-12T09:51:21.246Z,1009.55
2018-10-12T09:52:21.194Z,1009.54
2018-10-12T09:53:21.467Z,1009.56
2018-10-12T09:54:21.177Z,1009.55
2018-10-12T09:55:21.161Z,1009.60
2018-10-12T09:56:21.194Z,1009.60
2018-10-12T09:57:21.241Z,1009.63
2018-10-12T09:58:21.237Z,1009.68
2018-10-12T09:59:21.482Z,1009.65
2018-10-12T10:00:22.725Z,1009.66
2018-10-12T10:01:21.131Z,1009.63
2018-10-12T10:02:21.641Z,1009.61
2018-10-12T10:03:23.063Z,1009.61
2018-10-12T10:04:21.275Z,1009.56
2018-10-12T10:05:21.261Z,1009.64
2018-10-12T10:06:21.158Z,1009.66
2018-10-12T10:07:21.565Z,1009.68
2018-10-12T10:08:22.124Z,1009.67
2018-10-12T10:09:21.069Z,1009.65
2018-10-12T10:10:21.632Z,1009.58
2018-10-12T10:11:21.069Z,1009.56
2018-10-12T10:12:21.554Z,1009.56
2018-10-12T10:13:21.047Z,1009.54
2018-10-12T10:14:21.674Z,1009.54
2018-10-12T10:15:21.054Z,1009.52
2018-10-12T10:16:21.051Z,1009.62
2018-10-12T10:17:21.539Z,1009.50
2018-10-12T10:18:21.667Z,1009.51
2018-10-12T10:19:21.219Z,1009.48
2018-10-12T10:20:21.712Z,1009.53
2018-10-12T10:21:21.616Z,1009.52
2018-10-12T10:22:21.006Z,1009.47
2018-10-12T10:23:21.490Z,1009.49
2018-10-12T10:24:20.882Z,1009.48
2018-10-12T10:25:21.557Z,1009.45
2018-10-12T10:26:21.127Z,1009.48
2018-10-12T10:27:21.437Z,1009.51
2018-10-12T10:28:21.030Z,1009.51
2018-10-12T10:29:20.851Z,1009.50
2018-10-12T10:30:20.989Z,1009.50
2018-10-12T10:31:20.776Z,1009.48
2018-10-12T10:32:20.860Z,1009.45
2018-10-12T10:33:20.905Z,1009.40
2018-10-12T10:34:21.122Z,1009.38
2018-10-12T10:35:20.810Z,1009.39
2018-10-12T10:36:20.934Z,1009.42
2018-10-12T10:37:20.966Z,1009.40
2018-10-12T10:38:21.171Z,1009.36
2018-10-12T10:39:20.962Z,1009.41
2018-10-12T10:40:20.890Z,1009.37
2018-10-12T10:41:20.946Z,1009.32
2018-10-12T10:42:20.825Z,1009.27
2018-10-12T10:43:20.681Z,1009.30
2018-10-12T10:44:20.843Z,1009.29
2018-10-12T10:45:21.633Z,1009.26
2018-10-12T10:46:20.809Z,1009.31
2018-10-12T10:47:20.611Z,1009.33
2018-10-12T10:48:20.646Z,1009.31
2018-10-12T10:49:20.587Z,1009.28
2018-10-12T10:50:20.742Z,1009.34
2018-10-12T10:51:21.095Z,1009.27
2018-10-12T10:52:20.590Z,1009.22
2018-10-12T10:53:21.043Z,1009.26
2018-10-12T10:54:20.594Z,1009.22
2018-10-12T10:55:20.720Z,1009.49
2018-10-12T10:56:20.990Z,1009.56
2018-10-12T10:57:20.584Z,1009.60
2018-10-12T10:58:20.540Z,1009.56
2018-10-12T10:59:20.604Z,1009.59
2018-10-12T11:00:20.954Z,1009.33
2018-10-12T11:01:20.578Z,1009.63
2018-10-12T11:02:20.762Z,1009.70
2018-10-12T11:03:20.524Z,1009.65
2018-10-12T11:04:20.528Z,1009.66
2018-10-12T11:05:20.729Z,1009.71
2018-10-12T11:06:20.565Z,1009.68
2018-10-12T11:07:20.470Z,1009.73
2018-10-12T11:08:20.880Z,1009.78
2018-10-12T11:09:20.388Z,1009.77
2018-10-12T11:10:20.510Z,1009.80
2018-10-12T11:11:20.399Z,1009.77
2018-10-12T11:12:20.597Z,1009.74
2018-10-12T11:13:20.520Z,1009.68
2018-10-12T11:14:20.697Z,1009.79
2018-10-12T11:15:20.375Z,1009.69
2018-10-12T11:16:22.046Z,1009.69
2018-10-12T11:17:20.825Z,1009.67
2018-10-12T11:18:20.465Z,1009.21
2018-10-12T11:19:21.207Z,1009.27
2018-10-12T11:20:22.750Z,1009.59
2018-10-12T11:21:20.627Z,1009.65
2018-10-12T11:22:20.383Z,1009.67
2018-10-12T11:23:20.507Z,1009.68
2018-10-12T11:24:20.793Z,1009.67
2018-10-12T11:25:20.233Z,1009.69
2018-10-12T12:56:25.475Z,1008.84
2018-10-12T12:57:25.010Z,1008.92
2018-10-12T12:58:25.042Z,1008.95
2018-10-12T12:59:25.105Z,1008.96
2018-10-12T13:00:25.079Z,1008.98
2018-10-12T13:01:25.026Z,1009.00
2018-10-12T13:02:25.780Z,1008.96
2018-10-12T13:03:25.085Z,1009.00
2018-10-12T13:04:24.905Z,1008.98
2018-10-12T13:05:24.897Z,1008.95
2018-10-12T13:06:25.577Z,1009.01
2018-10-12T13:07:24.913Z,1008.99
2018-10-12T13:08:24.931Z,1008.99
2018-10-12T13:09:25.209Z,1008.97
2018-10-12T13:10:25.095Z,1008.98
2018-10-12T13:11:24.934Z,1009.00
2018-10-12T13:12:24.818Z,1009.05
2018-10-12T13:13:24.814Z,1009.06
2018-10-12T13:14:25.146Z,1009.03
2018-10-12T13:15:25.887Z,1009.02
2018-10-12T13:16:25.285Z,1009.03
2018-10-12T13:17:25.031Z,1009.07
2018-10-12T13:18:24.812Z,1009.06
2018-10-12T13:19:25.189Z,1009.03
2018-10-12T13:20:25.887Z,1009.05
2018-10-12T13:21:24.953Z,1009.11
2018-10-12T13:22:24.760Z,1009.12
2018-10-12T13:23:25.140Z,1009.13
2018-10-12T13:24:24.867Z,1009.08
2018-10-12T13:25:24.816Z,1009.10
2018-10-12T13:26:27.011Z,1009.11
2018-10-12T13:27:24.683Z,1009.10
2018-10-12T13:28:24.704Z,1009.18
2018-10-12T13:29:24.686Z,1009.13
2018-10-12T13:30:24.726Z,1009.11
2018-10-12T13:31:24.803Z,1009.13
2018-10-12T13:32:25.058Z,1009.16
2018-10-12T13:33:24.636Z,1009.12
2018-10-12T13:34:24.712Z,1009.14
2018-10-12T13:35:25.516Z,1009.14
2018-10-12T13:36:25.128Z,1009.20
2018-10-12T13:37:25.388Z,1009.16